sensor_id;sensor_type;location;lat;lon;timestamp;pressure;altitude;pressure_sealevel;temperature;humidity
25510;BME280;13413;52.336;21.200;2023-11-18T00:01:38;100584.99;;;3.34;79.65
25510;BME280;13413;52.336;21.200;2023-11-18T00:04:25;100585.89;;;3.34;79.50
25510;BME280;13413;52.336;21.200;2023-11-18T00:07:13;100587.08;;;3.34;79.51
25510;BME280;13413;52.336;21.200;2023-11-18T00:10:00;100580.09;;;3.32;79.66
25510;BME280;13413;52.336;21.200;2023-11-18T00:12:47;100581.19;;;3.31;79.49
25510;BME280;13413;52.336;21.200;2023-11-18T00:15:35;100582.64;;;3.35;79.65
25510;BME280;13413;52.336;21.200;2023-11-18T00:18:23;100582.08;;;3.31;79.47
25510;BME280;13413;52.336;21.200;2023-11-18T00:21:10;100585.91;;;3.24;79.52
25510;BME280;13413;52.336;21.200;2023-11-18T00:23:57;100590.89;;;3.21;79.78
25510;BME280;13413;52.336;21.200;2023-11-18T00:26:45;100593.39;;;3.25;79.75
25510;BME280;13413;52.336;21.200;2023-11-18T00:29:33;100599.80;;;3.26;79.75
25510;BME280;13413;52.336;21.200;2023-11-18T00:32:20;100604.59;;;3.27;79.75
25510;BME280;13413;52.336;21.200;2023-11-18T00:35:09;100602.67;;;3.27;79.61
25510;BME280;13413;52.336;21.200;2023-11-18T00:37:56;100603.84;;;3.25;79.81
25510;BME280;13413;52.336;21.200;2023-11-18T00:40:43;100609.95;;;3.28;79.91
25510;BME280;13413;52.336;21.200;2023-11-18T00:43:31;100616.30;;;3.32;79.67
25510;BME280;13413;52.336;21.200;2023-11-18T00:46:18;100618.48;;;3.33;79.82
25510;BME280;13413;52.336;21.200;2023-11-18T00:49:05;100617.14;;;3.32;79.71
25510;BME280;13413;52.336;21.200;2023-11-18T00:51:53;100619.04;;;3.32;79.66
25510;BME280;13413;52.336;21.200;2023-11-18T00:54:40;100619.00;;;3.35;79.75
25510;BME280;13413;52.336;21.200;2023-11-18T00:57:27;100623.44;;;3.38;79.67
25510;BME280;13413;52.336;21.200;2023-11-18T01:00:16;100625.98;;;3.39;79.64
25510;BME280;13413;52.336;21.200;2023-11-18T01:03:03;100625.27;;;3.35;79.64
25510;BME280;13413;52.336;21.200;2023-11-18T01:05:50;100630.59;;;3.32;79.59
25510;BME280;13413;52.336;21.200;2023-11-18T01:08:37;100628.98;;;3.30;79.60
25510;BME280;13413;52.336;21.200;2023-11-18T01:11:25;100627.61;;;3.30;79.79
25510;BME280;13413;52.336;21.200;2023-11-18T01:14:12;100628.52;;;3.27;79.73
25510;BME280;13413;52.336;21.200;2023-11-18T01:16:59;100627.42;;;3.25;79.69
25510;BME280;13413;52.336;21.200;2023-11-18T01:19:47;100632.27;;;3.26;79.94
25510;BME280;13413;52.336;21.200;2023-11-18T01:22:34;100634.97;;;3.28;79.72
25510;BME280;13413;52.336;21.200;2023-11-18T01:25:22;100631.08;;;3.26;79.82
25510;BME280;13413;52.336;21.200;2023-11-18T01:28:09;100631.46;;;3.21;79.76
25510;BME280;13413;52.336;21.200;2023-11-18T01:30:57;100631.29;;;3.19;79.71
25510;BME280;13413;52.336;21.200;2023-11-18T01:33:44;100633.94;;;3.20;79.97
25510;BME280;13413;52.336;21.200;2023-11-18T01:36:31;100630.99;;;3.22;79.94
25510;BME280;13413;52.336;21.200;2023-11-18T01:39:19;100628.58;;;3.24;79.88
25510;BME280;13413;52.336;21.200;2023-11-18T01:42:07;100625.48;;;3.26;80.00
25510;BME280;13413;52.336;21.200;2023-11-18T01:44:54;100618.67;;;3.25;79.94
25510;BME280;13413;52.336;21.200;2023-11-18T01:47:42;100616.73;;;3.24;79.86
25510;BME280;13413;52.336;21.200;2023-11-18T01:50:30;100616.63;;;3.23;79.74
25510;BME280;13413;52.336;21.200;2023-11-18T01:53:17;100615.75;;;3.21;79.91
25510;BME280;13413;52.336;21.200;2023-11-18T01:56:06;100620.24;;;3.19;79.91
25510;BME280;13413;52.336;21.200;2023-11-18T01:58:53;100623.95;;;3.19;79.79
25510;BME280;13413;52.336;21.200;2023-11-18T02:01:39;100624.73;;;3.20;79.88
25510;BME280;13413;52.336;21.200;2023-11-18T02:12:57;100619.80;;;3.29;79.81
25510;BME280;13413;52.336;21.200;2023-11-18T02:15:51;100620.11;;;3.25;79.77
25510;BME280;13413;52.336;21.200;2023-11-18T02:18:40;100625.29;;;3.21;80.12
25510;BME280;13413;52.336;21.200;2023-11-18T02:21:30;100626.70;;;3.19;79.79
25510;BME280;13413;52.336;21.200;2023-11-18T02:24:29;100632.67;;;3.19;80.10
25510;BME280;13413;52.336;21.200;2023-11-18T02:27:16;100635.92;;;3.20;80.01
25510;BME280;13413;52.336;21.200;2023-11-18T02:30:04;100635.35;;;3.20;80.06
25510;BME280;13413;52.336;21.200;2023-11-18T02:32:55;100639.15;;;3.19;80.05
25510;BME280;13413;52.336;21.200;2023-11-18T02:35:48;100638.75;;;3.15;80.11
25510;BME280;13413;52.336;21.200;2023-11-18T02:38:42;100640.40;;;3.12;80.06
25510;BME280;13413;52.336;21.200;2023-11-18T02:41:31;100645.70;;;3.15;80.20
25510;BME280;13413;52.336;21.200;2023-11-18T02:44:19;100646.73;;;3.16;80.09
25510;BME280;13413;52.336;21.200;2023-11-18T02:47:07;100646.52;;;3.14;80.06
25510;BME280;13413;52.336;21.200;2023-11-18T02:49:56;100648.02;;;3.13;80.05
25510;BME280;13413;52.336;21.200;2023-11-18T02:52:43;100650.17;;;3.12;80.08
25510;BME280;13413;52.336;21.200;2023-11-18T02:55:30;100650.44;;;3.13;80.01
25510;BME280;13413;52.336;21.200;2023-11-18T02:58:18;100653.11;;;3.15;80.16
25510;BME280;13413;52.336;21.200;2023-11-18T03:01:05;100662.29;;;3.11;80.02
25510;BME280;13413;52.336;21.200;2023-11-18T03:03:52;100667.59;;;3.11;80.15
25510;BME280;13413;52.336;21.200;2023-11-18T03:06:40;100670.20;;;3.11;80.20
25510;BME280;13413;52.336;21.200;2023-11-18T03:09:27;100670.44;;;3.12;80.09
25510;BME280;13413;52.336;21.200;2023-11-18T03:12:14;100670.30;;;3.12;79.99
25510;BME280;13413;52.336;21.200;2023-11-18T03:15:01;100675.92;;;3.11;80.00
25510;BME280;13413;52.336;21.200;2023-11-18T03:17:49;100675.42;;;3.11;80.09
25510;BME280;13413;52.336;21.200;2023-11-18T03:20:37;100678.18;;;3.09;80.12
25510;BME280;13413;52.336;21.200;2023-11-18T03:23:24;100681.11;;;3.08;80.06
25510;BME280;13413;52.336;21.200;2023-11-18T03:26:11;100681.80;;;3.08;79.98
25510;BME280;13413;52.336;21.200;2023-11-18T03:28:58;100687.67;;;3.06;80.12
25510;BME280;13413;52.336;21.200;2023-11-18T03:31:45;100686.73;;;3.07;80.05
25510;BME280;13413;52.336;21.200;2023-11-18T03:34:33;100689.08;;;3.11;80.13
25510;BME280;13413;52.336;21.200;2023-11-18T03:37:37;100692.83;;;3.12;80.03
25510;BME280;13413;52.336;21.200;2023-11-18T03:40:24;100693.83;;;3.12;80.02
25510;BME280;13413;52.336;21.200;2023-11-18T03:43:12;100694.89;;;3.10;80.09
25510;BME280;13413;52.336;21.200;2023-11-18T03:45:59;100692.82;;;3.08;80.01
25510;BME280;13413;52.336;21.200;2023-11-18T03:48:46;100691.25;;;3.08;80.27
25510;BME280;13413;52.336;21.200;2023-11-18T03:51:34;100694.84;;;3.06;80.06
25510;BME280;13413;52.336;21.200;2023-11-18T03:54:21;100698.05;;;3.03;80.27
25510;BME280;13413;52.336;21.200;2023-11-18T03:57:08;100702.27;;;3.01;79.99
25510;BME280;13413;52.336;21.200;2023-11-18T03:59:55;100708.77;;;2.98;79.95
25510;BME280;13413;52.336;21.200;2023-11-18T04:02:43;100716.92;;;2.99;80.30
25510;BME280;13413;52.336;21.200;2023-11-18T04:05:30;100720.32;;;2.98;80.11
25510;BME280;13413;52.336;21.200;2023-11-18T04:08:18;100719.36;;;2.94;80.32
25510;BME280;13413;52.336;21.200;2023-11-18T04:11:05;100722.65;;;2.97;80.35
25510;BME280;13413;52.336;21.200;2023-11-18T04:13:52;100725.13;;;2.94;80.33
25510;BME280;13413;52.336;21.200;2023-11-18T04:16:40;100731.17;;;2.93;80.21
25510;BME280;13413;52.336;21.200;2023-11-18T04:19:27;100738.60;;;2.92;80.44
25510;BME280;13413;52.336;21.200;2023-11-18T04:22:12;100738.46;;;2.94;80.19
25510;BME280;13413;52.336;21.200;2023-11-18T04:24:58;100737.10;;;2.93;80.25
25510;BME280;13413;52.336;21.200;2023-11-18T04:32:20;100726.34;;;2.94;80.37
25510;BME280;13413;52.336;21.200;2023-11-18T04:35:08;100730.73;;;2.92;80.34
25510;BME280;13413;52.336;21.200;2023-11-18T04:37:55;100730.63;;;2.91;80.38
25510;BME280;13413;52.336;21.200;2023-11-18T04:40:43;100736.88;;;2.89;80.20
25510;BME280;13413;52.336;21.200;2023-11-18T04:43:31;100736.91;;;2.89;80.39
25510;BME280;13413;52.336;21.200;2023-11-18T04:46:18;100744.25;;;2.91;80.43
25510;BME280;13413;52.336;21.200;2023-11-18T04:51:55;100749.45;;;2.89;80.37
25510;BME280;13413;52.336;21.200;2023-11-18T04:54:42;100749.98;;;2.87;80.39
25510;BME280;13413;52.336;21.200;2023-11-18T04:57:29;100749.55;;;2.86;80.42
25510;BME280;13413;52.336;21.200;2023-11-18T05:00:17;100751.39;;;2.84;80.38
25510;BME280;13413;52.336;21.200;2023-11-18T05:03:04;100754.52;;;2.85;80.43
25510;BME280;13413;52.336;21.200;2023-11-18T05:05:52;100755.31;;;2.86;80.60
25510;BME280;13413;52.336;21.200;2023-11-18T05:08:39;100755.98;;;2.86;80.50
25510;BME280;13413;52.336;21.200;2023-11-18T05:11:26;100756.55;;;2.86;80.34
25510;BME280;13413;52.336;21.200;2023-11-18T05:14:17;100760.70;;;2.84;80.38
25510;BME280;13413;52.336;21.200;2023-11-18T05:17:04;100763.69;;;2.83;80.27
25510;BME280;13413;52.336;21.200;2023-11-18T05:19:51;100768.90;;;2.81;80.36
25510;BME280;13413;52.336;21.200;2023-11-18T05:22:38;100767.64;;;2.84;80.52
25510;BME280;13413;52.336;21.200;2023-11-18T05:25:25;100773.26;;;2.87;80.26
25510;BME280;13413;52.336;21.200;2023-11-18T05:28:12;100776.09;;;2.88;80.46
25510;BME280;13413;52.336;21.200;2023-11-18T05:31:00;100781.36;;;2.85;80.34
25510;BME280;13413;52.336;21.200;2023-11-18T05:33:47;100788.22;;;2.82;80.51
25510;BME280;13413;52.336;21.200;2023-11-18T05:36:35;100791.70;;;2.80;80.25
25510;BME280;13413;52.336;21.200;2023-11-18T05:39:22;100794.79;;;2.78;80.55
25510;BME280;13413;52.336;21.200;2023-11-18T05:42:09;100795.42;;;2.79;80.46
25510;BME280;13413;52.336;21.200;2023-11-18T05:44:56;100796.94;;;2.82;80.38
25510;BME280;13413;52.336;21.200;2023-11-18T05:47:43;100797.25;;;2.85;80.58
25510;BME280;13413;52.336;21.200;2023-11-18T05:50:30;100801.67;;;2.84;80.35
25510;BME280;13413;52.336;21.200;2023-11-18T05:53:18;100807.26;;;2.83;80.32
25510;BME280;13413;52.336;21.200;2023-11-18T05:56:07;100814.63;;;2.82;80.56
25510;BME280;13413;52.336;21.200;2023-11-18T05:58:55;100819.42;;;2.80;80.49
25510;BME280;13413;52.336;21.200;2023-11-18T06:01:42;100824.31;;;2.81;80.25
25510;BME280;13413;52.336;21.200;2023-11-18T06:04:29;100826.02;;;2.78;80.53
25510;BME280;13413;52.336;21.200;2023-11-18T06:07:16;100830.27;;;2.78;80.52
25510;BME280;13413;52.336;21.200;2023-11-18T06:10:03;100834.95;;;2.76;80.34
25510;BME280;13413;52.336;21.200;2023-11-18T06:12:51;100838.39;;;2.77;80.75
25510;BME280;13413;52.336;21.200;2023-11-18T06:15:38;100838.81;;;2.78;80.61
25510;BME280;13413;52.336;21.200;2023-11-18T06:18:28;100840.42;;;2.77;80.56
25510;BME280;13413;52.336;21.200;2023-11-18T06:21:15;100847.58;;;2.79;80.40
25510;BME280;13413;52.336;21.200;2023-11-18T06:24:04;100847.77;;;2.83;80.59
25510;BME280;13413;52.336;21.200;2023-11-18T06:26:51;100847.50;;;2.78;80.11
25510;BME280;13413;52.336;21.200;2023-11-18T06:29:39;100852.30;;;2.75;80.47
25510;BME280;13413;52.336;21.200;2023-11-18T06:32:28;100865.26;;;2.75;80.60
25510;BME280;13413;52.336;21.200;2023-11-18T06:35:15;100867.38;;;2.77;80.49
25510;BME280;13413;52.336;21.200;2023-11-18T06:38:02;100871.92;;;2.74;80.33
25510;BME280;13413;52.336;21.200;2023-11-18T06:40:50;100877.89;;;2.78;80.78
25510;BME280;13413;52.336;21.200;2023-11-18T06:43:36;100880.86;;;2.81;80.38
25510;BME280;13413;52.336;21.200;2023-11-18T06:56:58;100896.38;;;2.79;80.38
25510;BME280;13413;52.336;21.200;2023-11-18T06:59:45;100898.02;;;2.78;80.42
25510;BME280;13413;52.336;21.200;2023-11-18T07:02:49;100899.06;;;2.78;80.40
25510;BME280;13413;52.336;21.200;2023-11-18T07:05:37;100903.98;;;2.80;80.51
25510;BME280;13413;52.336;21.200;2023-11-18T07:08:24;100907.80;;;2.83;80.46
25510;BME280;13413;52.336;21.200;2023-11-18T07:11:11;100913.75;;;2.85;80.60
25510;BME280;13413;52.336;21.200;2023-11-18T07:13:58;100917.44;;;2.83;80.19
25510;BME280;13413;52.336;21.200;2023-11-18T07:16:46;100922.60;;;2.78;80.27
25510;BME280;13413;52.336;21.200;2023-11-18T07:19:33;100926.52;;;2.78;80.22
25510;BME280;13413;52.336;21.200;2023-11-18T07:22:20;100926.70;;;2.82;80.40
25510;BME280;13413;52.336;21.200;2023-11-18T07:25:09;100929.73;;;2.84;80.34
25510;BME280;13413;52.336;21.200;2023-11-18T07:27:56;100929.73;;;2.84;80.59
25510;BME280;13413;52.336;21.200;2023-11-18T07:30:44;100935.54;;;2.86;80.34
25510;BME280;13413;52.336;21.200;2023-11-18T07:33:31;100938.38;;;2.85;80.22
25510;BME280;13413;52.336;21.200;2023-11-18T07:36:19;100942.82;;;2.87;80.41
25510;BME280;13413;52.336;21.200;2023-11-18T07:39:06;100946.17;;;2.86;80.23
25510;BME280;13413;52.336;21.200;2023-11-18T07:41:54;100948.56;;;2.87;80.51
25510;BME280;13413;52.336;21.200;2023-11-18T07:44:41;100947.45;;;2.88;80.27
25510;BME280;13413;52.336;21.200;2023-11-18T07:47:29;100948.13;;;2.88;80.56
25510;BME280;13413;52.336;21.200;2023-11-18T07:50:16;100948.25;;;2.91;80.40
25510;BME280;13413;52.336;21.200;2023-11-18T07:53:04;100947.28;;;2.90;80.26
25510;BME280;13413;52.336;21.200;2023-11-18T07:55:51;100948.74;;;2.87;80.04
25510;BME280;13413;52.336;21.200;2023-11-18T07:58:38;100950.99;;;2.84;80.17
25510;BME280;13413;52.336;21.200;2023-11-18T08:01:26;100955.09;;;2.84;80.21
25510;BME280;13413;52.336;21.200;2023-11-18T08:04:13;100960.21;;;2.85;80.27
25510;BME280;13413;52.336;21.200;2023-11-18T08:07:00;100962.80;;;2.86;80.30
25510;BME280;13413;52.336;21.200;2023-11-18T08:09:48;100966.12;;;2.88;80.28
25510;BME280;13413;52.336;21.200;2023-11-18T08:27:20;100986.00;;;2.87;81.19
25510;BME280;13413;52.336;21.200;2023-11-18T08:30:18;100998.60;;;3.26;80.17
25510;BME280;13413;52.336;21.200;2023-11-18T08:34:16;101000.20;;;3.21;80.07
25510;BME280;13413;52.336;21.200;2023-11-18T08:38:13;101005.30;;;3.23;80.30
25510;BME280;13413;52.336;21.200;2023-11-18T08:42:11;101004.80;;;3.20;80.08
25510;BME280;13413;52.336;21.200;2023-11-18T08:46:09;101013.98;;;3.23;80.36
25510;BME280;13413;52.336;21.200;2023-11-18T08:50:09;101019.33;;;3.24;80.21
25510;BME280;13413;52.336;21.200;2023-11-18T08:54:06;101032.39;;;3.20;79.86
25510;BME280;13413;52.336;21.200;2023-11-18T08:58:05;101037.84;;;3.15;79.90
25510;BME280;13413;52.336;21.200;2023-11-18T09:06:14;101031.80;;;3.14;80.11
25510;BME280;13413;52.336;21.200;2023-11-18T09:10:12;101030.98;;;3.11;80.07
25510;BME280;13413;52.336;21.200;2023-11-18T09:14:10;101033.15;;;3.10;80.14
25510;BME280;13413;52.336;21.200;2023-11-18T09:18:08;101033.86;;;3.10;80.18
25510;BME280;13413;52.336;21.200;2023-11-18T09:26:21;101033.58;;;3.16;80.14
25510;BME280;13413;52.336;21.200;2023-11-18T09:29:41;101031.20;;;3.15;79.99
25510;BME280;13413;52.336;21.200;2023-11-18T09:33:40;101038.61;;;3.21;80.03
25510;BME280;13413;52.336;21.200;2023-11-18T09:37:38;101041.38;;;3.21;79.99
25510;BME280;13413;52.336;21.200;2023-11-18T09:41:36;101049.59;;;3.19;80.01
25510;BME280;13413;52.336;21.200;2023-11-18T09:45:34;101053.12;;;3.21;79.97
25510;BME280;13413;52.336;21.200;2023-11-18T09:49:33;101054.27;;;3.20;79.98
25510;BME280;13413;52.336;21.200;2023-11-18T09:53:38;101056.29;;;3.16;79.77
25510;BME280;13413;52.336;21.200;2023-11-18T09:57:39;101054.02;;;3.16;79.63
25510;BME280;13413;52.336;21.200;2023-11-18T10:01:41;101048.92;;;3.12;79.78
25510;BME280;13413;52.336;21.200;2023-11-18T10:05:42;101054.12;;;3.08;79.71
25510;BME280;13413;52.336;21.200;2023-11-18T10:09:40;101053.00;;;3.06;79.72
25510;BME280;13413;52.336;21.200;2023-11-18T10:13:38;101053.94;;;3.05;79.72
25510;BME280;13413;52.336;21.200;2023-11-18T10:17:36;101056.02;;;3.10;79.73
25510;BME280;13413;52.336;21.200;2023-11-18T10:21:37;101055.48;;;3.15;80.09
25510;BME280;13413;52.336;21.200;2023-11-18T10:25:35;101061.73;;;3.22;80.01
25510;BME280;13413;52.336;21.200;2023-11-18T10:29:33;101065.84;;;3.26;79.75
25510;BME280;13413;52.336;21.200;2023-11-18T10:33:31;101071.57;;;3.34;79.89
25510;BME280;13413;52.336;21.200;2023-11-18T10:37:29;101073.42;;;3.40;79.59
25510;BME280;13413;52.336;21.200;2023-11-18T10:41:27;101070.13;;;3.37;79.54
25510;BME280;13413;52.336;21.200;2023-11-18T10:45:28;101063.96;;;3.33;79.32
25510;BME280;13413;52.336;21.200;2023-11-18T10:49:25;101057.38;;;3.27;79.36
25510;BME280;13413;52.336;21.200;2023-11-18T10:53:25;101052.55;;;3.24;79.65
25510;BME280;13413;52.336;21.200;2023-11-18T10:57:24;101053.98;;;3.24;79.35
25510;BME280;13413;52.336;21.200;2023-11-18T11:01:40;101054.54;;;3.23;79.50
25510;BME280;13413;52.336;21.200;2023-11-18T11:05:00;101061.58;;;3.25;79.60
25510;BME280;13413;52.336;21.200;2023-11-18T11:08:58;101068.70;;;3.23;79.55
25510;BME280;13413;52.336;21.200;2023-11-18T11:13:00;101069.23;;;3.20;79.62
25510;BME280;13413;52.336;21.200;2023-11-18T11:17:03;101070.95;;;3.16;79.42
25510;BME280;13413;52.336;21.200;2023-11-18T11:21:10;101076.52;;;3.17;79.61
25510;BME280;13413;52.336;21.200;2023-11-18T11:25:16;101079.16;;;3.16;79.45
25510;BME280;13413;52.336;21.200;2023-11-18T11:29:27;101078.98;;;3.18;79.67
25510;BME280;13413;52.336;21.200;2023-11-18T11:33:32;101084.80;;;3.25;79.96
25510;BME280;13413;52.336;21.200;2023-11-18T11:37:31;101086.28;;;3.24;79.44
25510;BME280;13413;52.336;21.200;2023-11-18T11:41:30;101089.97;;;3.21;79.65
25510;BME280;13413;52.336;21.200;2023-11-18T11:45:29;101097.48;;;3.24;79.59
25510;BME280;13413;52.336;21.200;2023-11-18T11:49:30;101097.72;;;3.23;79.50
25510;BME280;13413;52.336;21.200;2023-11-18T11:53:34;101100.61;;;3.24;79.78
25510;BME280;13413;52.336;21.200;2023-11-18T11:57:39;101102.84;;;3.30;79.79
25510;BME280;13413;52.336;21.200;2023-11-18T12:01:40;101113.96;;;3.28;79.55
25510;BME280;13413;52.336;21.200;2023-11-18T12:05:38;101125.08;;;3.29;79.56
25510;BME280;13413;52.336;21.200;2023-11-18T12:09:50;101124.13;;;3.27;79.73
25510;BME280;13413;52.336;21.200;2023-11-18T12:14:03;101125.17;;;3.25;79.57
25510;BME280;13413;52.336;21.200;2023-11-18T12:18:15;101120.42;;;3.23;79.62
25510;BME280;13413;52.336;21.200;2023-11-18T12:22:15;101118.65;;;3.23;79.59
25510;BME280;13413;52.336;21.200;2023-11-18T12:26:38;101126.91;;;3.25;79.49
25510;BME280;13413;52.336;21.200;2023-11-18T12:30:41;101129.30;;;3.33;79.78
25510;BME280;13413;52.336;21.200;2023-11-18T12:34:53;101139.91;;;3.37;79.70
25510;BME280;13413;52.336;21.200;2023-11-18T12:39:09;101141.30;;;3.37;79.74
25510;BME280;13413;52.336;21.200;2023-11-18T12:43:18;101144.05;;;3.35;79.68
25510;BME280;13413;52.336;21.200;2023-11-18T12:47:25;101153.85;;;3.37;79.78
25510;BME280;13413;52.336;21.200;2023-11-18T12:51:27;101158.08;;;3.42;79.78
25510;BME280;13413;52.336;21.200;2023-11-18T12:55:25;101166.40;;;3.40;79.57
25510;BME280;13413;52.336;21.200;2023-11-18T12:59:23;101171.20;;;3.41;79.72
25510;BME280;13413;52.336;21.200;2023-11-18T13:03:21;101178.18;;;3.46;79.73
25510;BME280;13413;52.336;21.200;2023-11-18T13:07:19;101185.98;;;3.47;79.68
25510;BME280;13413;52.336;21.200;2023-11-18T13:11:18;101189.64;;;3.43;79.42
25510;BME280;13413;52.336;21.200;2023-11-18T13:15:16;101196.86;;;3.35;79.25
25510;BME280;13413;52.336;21.200;2023-11-18T13:19:24;101203.44;;;3.26;79.30
25510;BME280;13413;52.336;21.200;2023-11-18T13:23:23;101213.11;;;3.20;79.36
25510;BME280;13413;52.336;21.200;2023-11-18T13:27:22;101220.80;;;3.17;79.36
25510;BME280;13413;52.336;21.200;2023-11-18T13:31:21;101226.59;;;3.15;79.51
25510;BME280;13413;52.336;21.200;2023-11-18T13:35:19;101232.34;;;3.12;79.54
25510;BME280;13413;52.336;21.200;2023-11-18T13:39:20;101237.61;;;3.09;79.52
25510;BME280;13413;52.336;21.200;2023-11-18T13:43:18;101242.80;;;3.08;79.41
25510;BME280;13413;52.336;21.200;2023-11-18T13:47:18;101248.05;;;3.07;79.63
25510;BME280;13413;52.336;21.200;2023-11-18T13:51:16;101248.27;;;3.07;79.54
25510;BME280;13413;52.336;21.200;2023-11-18T13:55:16;101249.21;;;3.11;79.57
25510;BME280;13413;52.336;21.200;2023-11-18T13:59:14;101257.05;;;3.04;79.07
25510;BME280;13413;52.336;21.200;2023-11-18T14:03:13;101258.95;;;2.97;79.41
25510;BME280;13413;52.336;21.200;2023-11-18T14:07:15;101260.66;;;2.94;79.20
25510;BME280;13413;52.336;21.200;2023-11-18T14:11:14;101263.27;;;2.90;79.26
25510;BME280;13413;52.336;21.200;2023-11-18T14:15:12;101258.12;;;2.88;79.27
25510;BME280;13413;52.336;21.200;2023-11-18T14:19:11;101262.34;;;2.86;79.52
25510;BME280;13413;52.336;21.200;2023-11-18T14:23:09;101270.81;;;2.87;79.33
25510;BME280;13413;52.336;21.200;2023-11-18T14:27:07;101277.23;;;2.85;79.42
25510;BME280;13413;52.336;21.200;2023-11-18T14:31:05;101278.16;;;2.87;79.54
25510;BME280;13413;52.336;21.200;2023-11-18T14:35:05;101279.92;;;2.89;79.73
25510;BME280;13413;52.336;21.200;2023-11-18T14:39:17;101281.73;;;2.88;79.34
25510;BME280;13413;52.336;21.200;2023-11-18T14:43:16;101284.48;;;2.84;79.38
25510;BME280;13413;52.336;21.200;2023-11-18T14:47:14;101286.46;;;2.85;79.35
25510;BME280;13413;52.336;21.200;2023-11-18T14:51:12;101286.02;;;2.87;79.31
25510;BME280;13413;52.336;21.200;2023-11-18T14:55:10;101283.48;;;2.83;79.44
25510;BME280;13413;52.336;21.200;2023-11-18T14:59:08;101287.09;;;2.86;79.44
25510;BME280;13413;52.336;21.200;2023-11-18T15:07:17;101282.20;;;2.73;79.04
25510;BME280;13413;52.336;21.200;2023-11-18T15:11:22;101282.55;;;2.71;79.38
25510;BME280;13413;52.336;21.200;2023-11-18T15:15:21;101276.70;;;2.67;79.28
25510;BME280;13413;52.336;21.200;2023-11-18T15:19:46;101277.26;;;2.69;79.24
25510;BME280;13413;52.336;21.200;2023-11-18T15:22:57;101278.60;;;2.67;78.91
25510;BME280;13413;52.336;21.200;2023-11-18T15:26:55;101275.33;;;2.64;79.28
25510;BME280;13413;52.336;21.200;2023-11-18T15:30:53;101274.98;;;2.64;79.18
25510;BME280;13413;52.336;21.200;2023-11-18T15:34:52;101282.33;;;2.64;79.29
25510;BME280;13413;52.336;21.200;2023-11-18T15:38:50;101287.86;;;2.67;79.40
25510;BME280;13413;52.336;21.200;2023-11-18T15:42:48;101289.04;;;2.67;79.11
25510;BME280;13413;52.336;21.200;2023-11-18T15:46:50;101288.26;;;2.61;78.85
25510;BME280;13413;52.336;21.200;2023-11-18T15:50:47;101291.39;;;2.56;78.92
25510;BME280;13413;52.336;21.200;2023-11-18T15:54:46;101301.70;;;2.56;79.09
25510;BME280;13413;52.336;21.200;2023-11-18T15:58:44;101300.92;;;2.54;79.16
25510;BME280;13413;52.336;21.200;2023-11-18T16:02:42;101303.25;;;2.53;79.20
25510;BME280;13413;52.336;21.200;2023-11-18T16:06:42;101304.58;;;2.52;79.35
25510;BME280;13413;52.336;21.200;2023-11-18T16:10:41;101308.09;;;2.54;79.36
25510;BME280;13413;52.336;21.200;2023-11-18T16:14:39;101311.65;;;2.58;79.44
25510;BME280;13413;52.336;21.200;2023-11-18T16:18:37;101318.92;;;2.59;79.34
25510;BME280;13413;52.336;21.200;2023-11-18T16:22:35;101322.10;;;2.64;79.37
25510;BME280;13413;52.336;21.200;2023-11-18T16:26:34;101327.58;;;2.66;79.18
25510;BME280;13413;52.336;21.200;2023-11-18T16:30:32;101321.74;;;2.67;79.40
25510;BME280;13413;52.336;21.200;2023-11-18T16:34:31;101328.98;;;2.65;79.05
25510;BME280;13413;52.336;21.200;2023-11-18T16:38:28;101326.04;;;2.71;79.24
25510;BME280;13413;52.336;21.200;2023-11-18T16:42:27;101335.35;;;2.67;79.37
25510;BME280;13413;52.336;21.200;2023-11-18T16:46:27;101334.55;;;2.71;79.33
25510;BME280;13413;52.336;21.200;2023-11-18T16:54:36;101333.06;;;2.67;79.08
25510;BME280;13413;52.336;21.200;2023-11-18T16:58:34;101342.27;;;2.68;78.95
25510;BME280;13413;52.336;21.200;2023-11-18T17:02:32;101345.62;;;2.70;79.38
25510;BME280;13413;52.336;21.200;2023-11-18T17:06:32;101342.34;;;2.72;79.09
25510;BME280;13413;52.336;21.200;2023-11-18T17:10:29;101345.36;;;2.74;79.13
25510;BME280;13413;52.336;21.200;2023-11-18T17:14:27;101347.92;;;2.72;78.92
25510;BME280;13413;52.336;21.200;2023-11-18T17:18:26;101344.35;;;2.76;79.22
25510;BME280;13413;52.336;21.200;2023-11-18T17:22:24;101342.08;;;2.78;78.96
25510;BME280;13413;52.336;21.200;2023-11-18T17:26:22;101345.73;;;2.74;78.86
25510;BME280;13413;52.336;21.200;2023-11-18T17:30:20;101344.45;;;2.72;78.93
25510;BME280;13413;52.336;21.200;2023-11-18T17:44:44;101332.30;;;2.89;78.27
25510;BME280;13413;52.336;21.200;2023-11-18T17:47:42;101326.57;;;2.91;78.33
25510;BME280;13413;52.336;21.200;2023-11-18T17:51:40;101330.86;;;2.87;78.25
25510;BME280;13413;52.336;21.200;2023-11-18T17:55:38;101328.48;;;2.78;78.46
25510;BME280;13413;52.336;21.200;2023-11-18T17:59:36;101325.11;;;2.74;78.60
25510;BME280;13413;52.336;21.200;2023-11-18T18:03:35;101316.18;;;2.74;78.75
25510;BME280;13413;52.336;21.200;2023-11-18T18:07:33;101318.25;;;2.67;78.66
25510;BME280;13413;52.336;21.200;2023-11-18T18:11:34;101307.07;;;2.62;78.78
25510;BME280;13413;52.336;21.200;2023-11-18T18:19:31;101295.75;;;2.61;78.59
25510;BME280;13413;52.336;21.200;2023-11-18T18:23:28;101301.83;;;2.59;78.61
25510;BME280;13413;52.336;21.200;2023-11-18T18:27:26;101310.00;;;2.62;78.76
25510;BME280;13413;52.336;21.200;2023-11-18T18:31:24;101315.35;;;2.63;78.95
25510;BME280;13413;52.336;21.200;2023-11-18T18:35:22;101312.55;;;2.63;78.74
25510;BME280;13413;52.336;21.200;2023-11-18T18:39:20;101306.58;;;2.64;78.82
25510;BME280;13413;52.336;21.200;2023-11-18T18:43:26;101305.21;;;2.66;78.78